Time;durP1;ratioP1;P1;durP2;ratioP2;P2;SDS_P1;SDS_P2;PMS_P1;PMS_P2;Temp;Humidity;BMP_temperature;BMP_pressure;BME280_temperature;BME280_humidity;BME280_pressure;Samples;Min_cycle;Max_cycle;Signal;HPM_P1;HPM_P2
2022/05/30 00:01:17;;;;;;;1.10;1.10;;;10.60;99.90;;;;;;5043780;28;20245;-74
2022/05/30 00:03:45;;;;;;;1.25;1.25;;;10.60;99.90;;;;;;5062429;22;20227;-81
2022/05/30 00:06:14;;;;;;;1.58;1.30;;;10.60;99.90;;;;;;5050779;28;20291;-78
2022/05/30 00:08:42;;;;;;;1.60;1.50;;;10.60;99.90;;;;;;5055187;28;20219;-79
2022/05/30 00:11:12;;;;;;;1.52;1.42;;;10.60;99.90;;;;;;5050413;28;20574;-78
2022/05/30 00:13:40;;;;;;;1.50;1.40;;;10.60;99.90;;;;;;5048448;28;20223;-77
2022/05/30 00:16:09;;;;;;;1.65;1.55;;;10.60;99.90;;;;;;5051316;28;20227;-75
2022/05/30 00:18:38;;;;;;;1.35;1.30;;;10.60;99.90;;;;;;5050618;28;20536;-77
2022/05/30 00:21:06;;;;;;;1.45;1.40;;;10.60;99.90;;;;;;5049397;28;20234;-76
2022/05/30 00:23:33;;;;;;;1.52;1.45;;;10.60;99.90;;;;;;5051856;28;20238;-78
2022/05/30 00:26:00;;;;;;;1.40;1.40;;;10.60;99.90;;;;;;5050417;28;20222;-82
2022/05/30 00:28:27;;;;;;;1.35;1.25;;;10.60;99.90;;;;;;5057793;28;20209;-82
2022/05/30 00:30:54;;;;;;;1.50;1.40;;;10.60;99.90;;;;;;5049895;28;20258;-75
2022/05/30 00:33:21;;;;;;;1.40;1.30;;;10.70;99.90;;;;;;5052009;28;20829;-79
2022/05/30 00:35:50;;;;;;;1.42;1.40;;;10.70;99.90;;;;;;5051558;28;20222;-77
2022/05/30 00:38:17;;;;;;;1.55;1.55;;;10.70;99.90;;;;;;5057422;28;20199;-77
2022/05/30 00:40:44;;;;;;;1.10;1.10;;;10.70;99.90;;;;;;5055545;28;20256;-75
2022/05/30 00:43:24;;;;;;;1.30;1.30;;;10.70;99.90;;;;;;5055369;28;20227;-78
2022/05/30 00:45:51;;;;;;;1.25;1.25;;;10.70;99.90;;;;;;5055184;28;20404;-76
2022/05/30 00:48:22;;;;;;;1.23;1.13;;;10.80;99.90;;;;;;5060847;28;20207;-76
2022/05/30 00:50:53;;;;;;;1.38;1.38;;;10.80;99.90;;;;;;5057415;28;20272;-76
2022/05/30 00:53:20;;;;;;;1.30;1.30;;;10.70;99.90;;;;;;5057889;28;20229;-74
2022/05/30 00:55:49;;;;;;;1.27;1.27;;;10.70;99.90;;;;;;5056576;28;20246;-78
2022/05/30 00:58:20;;;;;;;1.15;1.10;;;10.70;99.90;;;;;;5054016;28;20260;-76
2022/05/30 01:00:48;;;;;;;1.63;1.52;;;10.70;99.90;;;;;;5054733;28;20234;-79
2022/05/30 01:08:45;;;;;;;1.33;1.33;;;10.70;99.90;;;;;;5055021;28;20280;-79
2022/05/30 01:11:12;;;;;;;1.70;1.60;;;10.70;99.90;;;;;;5057733;28;20227;-81
2022/05/30 01:13:40;;;;;;;1.50;1.50;;;10.60;99.90;;;;;;5056633;28;20226;-79
2022/05/30 01:16:07;;;;;;;1.35;1.35;;;10.60;99.90;;;;;;5053616;28;20912;-77
2022/05/30 01:18:40;;;;;;;1.70;1.60;;;10.70;99.90;;;;;;5059362;28;20226;-80
2022/05/30 01:21:37;;;;;;;1.50;1.50;;;10.60;99.90;;;;;;5056572;28;20218;-80
2022/05/30 01:24:29;;;;;;;1.13;1.13;;;10.60;99.90;;;;;;5054694;28;20214;-78
2022/05/30 01:27:15;;;;;;;1.85;1.75;;;10.70;99.90;;;;;;5050991;28;20211;-76
2022/05/30 01:29:47;;;;;;;1.63;1.63;;;10.70;99.90;;;;;;5054317;28;20665;-79
2022/05/30 01:32:18;;;;;;;1.58;1.58;;;10.70;99.90;;;;;;5046791;28;20695;-81
2022/05/30 01:34:45;;;;;;;1.33;1.30;;;10.70;99.90;;;;;;5054364;28;20278;-80
2022/05/30 01:37:13;;;;;;;1.60;1.50;;;10.70;99.90;;;;;;5051980;28;20223;-80
2022/05/30 01:39:40;;;;;;;1.60;1.50;;;10.60;99.90;;;;;;5052159;28;20270;-76
2022/05/30 01:42:08;;;;;;;1.40;1.30;;;10.60;99.90;;;;;;5048581;28;20660;-77
2022/05/30 01:44:35;;;;;;;1.92;1.83;;;10.60;99.90;;;;;;5056281;28;20207;-79
2022/05/30 01:47:04;;;;;;;1.42;1.40;;;10.50;99.90;;;;;;5052219;28;20223;-77
2022/05/30 01:49:32;;;;;;;1.27;1.27;;;10.40;99.90;;;;;;5045672;28;20195;-76
2022/05/30 01:51:59;;;;;;;1.70;1.60;;;10.30;99.90;;;;;;5052451;28;20277;-80
2022/05/30 01:54:26;;;;;;;1.63;1.58;;;10.40;99.90;;;;;;5056157;28;20198;-84
2022/05/30 01:56:53;;;;;;;1.70;1.60;;;10.40;99.90;;;;;;5056268;28;20253;-81
2022/05/30 01:59:20;;;;;;;1.30;1.30;;;10.50;99.90;;;;;;5052290;28;20210;-83
2022/05/30 02:01:47;;;;;;;1.40;1.30;;;10.50;99.90;;;;;;5049338;28;20225;-79
2022/05/30 02:04:16;;;;;;;1.63;1.60;;;10.60;99.90;;;;;;5050512;28;20222;-79
2022/05/30 02:06:44;;;;;;;1.70;1.52;;;10.60;99.90;;;;;;5053816;28;20251;-78
2022/05/30 02:09:12;;;;;;;1.40;1.40;;;10.60;99.90;;;;;;5052796;28;20235;-78
2022/05/30 02:11:39;;;;;;;1.70;1.60;;;10.60;99.90;;;;;;5050108;28;20218;-76
2022/05/30 02:14:06;;;;;;;1.48;1.40;;;10.60;99.90;;;;;;5052291;28;20218;-76
2022/05/30 02:19:21;;;;;;;1.30;1.30;;;10.60;99.90;;;;;;5054958;28;20210;-77
2022/05/30 02:21:48;;;;;;;1.60;1.50;;;10.60;99.90;;;;;;5047368;28;20258;-78
2022/05/30 02:24:16;;;;;;;1.40;1.40;;;10.60;99.90;;;;;;5051668;28;20219;-75
2022/05/30 02:26:43;;;;;;;1.20;1.20;;;10.60;99.90;;;;;;5055178;28;20231;-78
2022/05/30 02:29:11;;;;;;;1.70;1.60;;;10.60;99.90;;;;;;5052412;28;20202;-79
2022/05/30 02:31:39;;;;;;;1.52;1.42;;;10.60;99.90;;;;;;5054166;28;20272;-77
2022/05/30 02:36:52;;;;;;;1.40;1.33;;;10.60;99.90;;;;;;5053936;28;20213;-79
2022/05/30 02:39:21;;;;;;;1.40;1.40;;;10.60;99.90;;;;;;5052531;28;20587;-79
2022/05/30 02:41:49;;;;;;;1.27;1.27;;;10.60;99.90;;;;;;5052396;28;20246;-78
2022/05/30 02:44:19;;;;;;;1.40;1.30;;;10.60;99.90;;;;;;5052270;28;20226;-78
2022/05/30 02:46:46;;;;;;;1.20;1.20;;;10.70;99.90;;;;;;5048649;28;20257;-78
2022/05/30 02:49:14;;;;;;;1.30;1.30;;;10.60;99.90;;;;;;5051230;28;20202;-78
2022/05/30 02:51:41;;;;;;;1.35;1.35;;;10.60;99.90;;;;;;5052609;28;20223;-78
2022/05/30 02:54:11;;;;;;;1.55;1.45;;;10.60;99.90;;;;;;5051425;28;20213;-78
2022/05/30 02:56:38;;;;;;;1.38;1.38;;;10.60;99.90;;;;;;5051353;28;20630;-81
2022/05/30 02:59:06;;;;;;;1.58;1.30;;;10.60;99.90;;;;;;5050845;28;20199;-78
2022/05/30 03:01:35;;;;;;;1.27;1.27;;;10.60;99.90;;;;;;5053771;28;20235;-77
2022/05/30 03:04:04;;;;;;;1.35;1.33;;;10.60;99.90;;;;;;5055377;28;20234;-76
2022/05/30 03:06:31;;;;;;;1.23;1.13;;;10.60;99.90;;;;;;5055433;28;20219;-76
2022/05/30 03:08:58;;;;;;;1.55;1.45;;;10.70;99.90;;;;;;5052818;28;20198;-75
2022/05/30 03:11:27;;;;;;;1.35;1.25;;;10.70;99.90;;;;;;5053185;28;20234;-75
2022/05/30 03:13:54;;;;;;;1.08;1.08;;;10.70;99.90;;;;;;5055525;28;20287;-78
2022/05/30 03:16:22;;;;;;;1.48;1.45;;;10.70;99.90;;;;;;5053497;28;20246;-76
2022/05/30 03:18:49;;;;;;;1.30;1.30;;;10.70;99.90;;;;;;5056681;28;20199;-78
2022/05/30 03:21:16;;;;;;;1.38;1.38;;;10.60;99.90;;;;;;5056656;28;20230;-82
2022/05/30 03:23:43;;;;;;;1.65;1.55;;;10.60;99.90;;;;;;5057917;28;20697;-78
2022/05/30 03:26:12;;;;;;;1.33;1.33;;;10.50;99.90;;;;;;5051135;28;20365;-82
2022/05/30 03:28:41;;;;;;;1.58;1.48;;;10.50;99.90;;;;;;5052065;28;20199;-78
2022/05/30 03:31:09;;;;;;;1.35;1.35;;;10.50;99.90;;;;;;5051891;28;20253;-82
2022/05/30 03:33:36;;;;;;;1.40;1.40;;;10.50;99.90;;;;;;5050052;28;20219;-79
2022/05/30 03:36:07;;;;;;;1.75;1.65;;;10.50;99.90;;;;;;5051586;28;20280;-75
2022/05/30 03:38:34;;;;;;;0.98;0.98;;;10.40;99.90;;;;;;5053045;28;20202;-80
2022/05/30 03:41:01;;;;;;;1.58;1.58;;;10.40;99.90;;;;;;5053602;28;20234;-77
2022/05/30 03:43:28;;;;;;;1.38;1.38;;;10.40;99.90;;;;;;5050975;28;20218;-78
2022/05/30 03:45:57;;;;;;;1.85;1.75;;;10.40;99.90;;;;;;5049890;28;20196;-78
2022/05/30 03:48:24;;;;;;;1.70;1.60;;;10.40;99.90;;;;;;5054220;28;20831;-79
2022/05/30 03:50:51;;;;;;;1.30;1.30;;;10.40;99.90;;;;;;5051753;28;20187;-76
2022/05/30 03:53:18;;;;;;;1.50;1.40;;;10.40;99.90;;;;;;5052590;28;20542;-75
2022/05/30 03:55:46;;;;;;;1.38;1.38;;;10.40;99.90;;;;;;5051004;28;20799;-76
2022/05/30 03:58:15;;;;;;;2.40;1.50;;;10.40;99.90;;;;;;5051464;28;20191;-77
2022/05/30 04:00:43;;;;;;;1.60;1.50;;;10.40;99.90;;;;;;5052927;28;20290;-74
2022/05/30 04:03:12;;;;;;;1.25;1.15;;;10.40;99.90;;;;;;5052732;28;20243;-80
2022/05/30 04:05:39;;;;;;;1.45;1.35;;;10.40;99.90;;;;;;5047146;28;20688;-81
2022/05/30 04:08:07;;;;;;;1.70;1.60;;;10.40;99.90;;;;;;5057252;28;20217;-81
2022/05/30 04:10:34;;;;;;;1.80;1.70;;;10.40;99.90;;;;;;5051703;28;20638;-79
2022/05/30 04:13:04;;;;;;;1.40;1.40;;;10.40;99.90;;;;;;5054889;28;20586;-81
2022/05/30 04:15:31;;;;;;;1.40;1.40;;;10.40;99.90;;;;;;5049727;28;20511;-80
2022/05/30 04:17:58;;;;;;;1.77;1.40;;;10.40;99.90;;;;;;5058126;28;20624;-77
2022/05/30 04:20:28;;;;;;;1.52;1.48;;;10.50;99.90;;;;;;5049796;28;20203;-81
2022/05/30 04:22:55;;;;;;;1.80;1.70;;;10.50;99.90;;;;;;5049978;28;20823;-74
2022/05/30 04:25:22;;;;;;;1.40;1.40;;;10.50;99.90;;;;;;5050609;28;20753;-77
2022/05/30 04:27:49;;;;;;;1.60;1.50;;;10.50;99.90;;;;;;5048510;28;20211;-80
2022/05/30 04:30:17;;;;;;;1.50;1.50;;;10.50;99.90;;;;;;5049582;28;20231;-82
2022/05/30 04:32:45;;;;;;;1.38;1.38;;;10.50;99.90;;;;;;5053103;28;20766;-78
2022/05/30 04:35:12;;;;;;;1.25;1.20;;;10.60;99.90;;;;;;5048833;28;20191;-76
2022/05/30 04:37:41;;;;;;;1.48;1.48;;;10.60;99.90;;;;;;5049791;28;20223;-75
2022/05/30 04:40:12;;;;;;;1.58;1.58;;;10.70;99.90;;;;;;5052215;28;20204;-81
2022/05/30 04:42:40;;;;;;;1.45;1.45;;;10.80;99.90;;;;;;5051176;28;20253;-75
2022/05/30 04:45:08;;;;;;;1.80;1.33;;;10.90;99.90;;;;;;5052808;28;20234;-78
2022/05/30 04:47:36;;;;;;;1.73;1.63;;;11.00;99.90;;;;;;5047842;28;20227;-77
2022/05/30 04:50:04;;;;;;;1.23;1.23;;;11.10;99.90;;;;;;5052909;28;20202;-78
2022/05/30 04:52:31;;;;;;;1.33;1.23;;;11.10;99.90;;;;;;5050632;28;20231;-81
2022/05/30 04:55:00;;;;;;;1.30;1.20;;;11.10;99.90;;;;;;5050988;28;20601;-82
2022/05/30 04:57:27;;;;;;;1.67;1.33;;;11.10;99.90;;;;;;5049601;28;20787;-77
2022/05/30 04:59:54;;;;;;;1.23;1.23;;;11.10;99.90;;;;;;5047994;28;20195;-80
2022/05/30 05:02:21;;;;;;;1.40;1.30;;;11.20;99.90;;;;;;5052531;28;20235;-77
2022/05/30 05:04:48;;;;;;;1.33;1.33;;;11.20;99.90;;;;;;5054350;28;20190;-77
2022/05/30 05:07:15;;;;;;;1.70;1.60;;;11.30;99.90;;;;;;5051141;28;20215;-78
2022/05/30 05:09:51;;;;;;;1.20;1.20;;;11.30;99.90;;;;;;5053828;28;20661;-76
2022/05/30 05:12:19;;;;;;;3.00;1.10;;;11.40;99.90;;;;;;5050547;28;20309;-80
2022/05/30 05:14:46;;;;;;;1.45;1.35;;;11.40;99.90;;;;;;5054265;28;20195;-76
2022/05/30 05:17:14;;;;;;;1.00;1.00;;;11.40;99.90;;;;;;5048797;28;20237;-75
2022/05/30 05:19:42;;;;;;;1.40;1.40;;;11.40;99.90;;;;;;5054080;28;20188;-76
2022/05/30 05:22:14;;;;;;;1.27;1.27;;;11.40;99.90;;;;;;5049910;28;20235;-77
2022/05/30 05:24:42;;;;;;;2.70;1.50;;;11.50;99.90;;;;;;5050897;28;20199;-78
2022/05/30 05:27:09;;;;;;;1.42;1.25;;;11.50;99.90;;;;;;5051930;28;20219;-75
2022/05/30 05:29:38;;;;;;;1.27;1.15;;;11.60;99.90;;;;;;5055132;28;20203;-76
2022/05/30 05:32:07;;;;;;;1.20;1.20;;;11.90;99.90;;;;;;5052159;28;20756;-77
2022/05/30 05:34:34;;;;;;;1.65;1.35;;;12.20;99.90;;;;;;5054024;28;20198;-74
2022/05/30 05:37:02;;;;;;;1.60;1.50;;;12.60;99.90;;;;;;5052552;28;20559;-75
2022/05/30 05:39:29;;;;;;;1.65;1.55;;;12.80;99.90;;;;;;5053519;28;20225;-75
2022/05/30 05:41:56;;;;;;;1.52;1.42;;;12.90;99.90;;;;;;5056009;28;20223;-75
2022/05/30 05:44:23;;;;;;;1.60;1.50;;;13.00;99.90;;;;;;5052273;28;20207;-75
2022/05/30 05:46:52;;;;;;;4.88;1.60;;;13.10;99.90;;;;;;5051228;28;20223;-75
2022/05/30 05:49:19;;;;;;;1.83;1.73;;;13.20;99.90;;;;;;5055141;28;20669;-75
2022/05/30 05:51:46;;;;;;;2.95;1.50;;;13.00;99.90;;;;;;5047459;28;20280;-75
2022/05/30 05:54:13;;;;;;;1.92;1.48;;;12.80;99.90;;;;;;5047442;28;20242;-74
2022/05/30 05:56:40;;;;;;;2.88;1.42;;;12.60;99.90;;;;;;5042865;28;20296;-74
2022/05/30 05:59:07;;;;;;;1.55;1.45;;;12.40;99.90;;;;;;5045484;28;20192;-77
2022/05/30 06:01:36;;;;;;;2.65;1.42;;;12.40;99.90;;;;;;5046115;28;20222;-74
2022/05/30 06:04:06;;;;;;;1.70;1.60;;;12.30;99.90;;;;;;5048320;28;20233;-74
2022/05/30 06:06:34;;;;;;;1.50;1.40;;;12.40;99.90;;;;;;5050850;28;20284;-74
2022/05/30 06:09:03;;;;;;;1.63;1.52;;;12.60;99.90;;;;;;5048419;28;20222;-74
2022/05/30 06:11:31;;;;;;;1.50;1.40;;;12.90;99.90;;;;;;5048337;28;20979;-74
2022/05/30 06:13:59;;;;;;;1.77;1.67;;;13.20;99.90;;;;;;5049821;28;20628;-73
2022/05/30 06:16:28;;;;;;;1.50;1.40;;;13.30;99.90;;;;;;5068728;22;20199;-73
2022/05/30 06:18:57;;;;;;;1.95;1.75;;;13.40;99.90;;;;;;5016980;28;20649;-72
2022/05/30 06:21:27;;;;;;;1.70;1.60;;;13.60;99.90;;;;;;5016157;28;20254;-73
2022/05/30 06:23:55;;;;;;;1.75;1.65;;;13.70;99.90;;;;;;5020301;28;20195;-73
2022/05/30 06:26:23;;;;;;;1.80;1.63;;;13.80;99.90;;;;;;5019256;28;20204;-73
2022/05/30 06:28:50;;;;;;;1.60;1.50;;;13.90;99.90;;;;;;5020547;28;20303;-71
2022/05/30 06:31:19;;;;;;;3.17;1.50;;;14.00;99.90;;;;;;5019689;28;20200;-72
2022/05/30 06:33:47;;;;;;;1.52;1.42;;;14.20;99.90;;;;;;5019655;28;20227;-72
2022/05/30 06:36:17;;;;;;;1.40;1.40;;;14.30;99.90;;;;;;5015765;28;20205;-75
2022/05/30 06:38:47;;;;;;;1.70;1.60;;;14.40;99.90;;;;;;5020616;28;20215;-72
2022/05/30 06:41:17;;;;;;;1.70;1.60;;;14.50;99.90;;;;;;5025203;28;20206;-72
2022/05/30 06:43:45;;;;;;;1.60;1.50;;;14.40;99.90;;;;;;5036253;28;20294;-73
2022/05/30 06:46:13;;;;;;;2.58;1.40;;;14.50;99.90;;;;;;5018254;28;20537;-73
2022/05/30 06:48:41;;;;;;;1.95;1.60;;;14.60;99.90;;;;;;5020200;28;20623;-71
2022/05/30 06:51:11;;;;;;;1.45;1.35;;;14.60;99.90;;;;;;5016886;28;20199;-72
2022/05/30 06:53:40;;;;;;;2.58;1.75;;;14.70;99.90;;;;;;5019694;28;20223;-73
2022/05/30 06:56:14;;;;;;;1.38;1.38;;;14.70;99.90;;;;;;5020385;28;20258;-72
2022/05/30 06:58:42;;;;;;;1.40;1.30;;;14.80;99.90;;;;;;5018605;28;20531;-73
2022/05/30 07:01:09;;;;;;;1.83;1.50;;;15.00;99.90;;;;;;5016125;28;20199;-72
2022/05/30 07:03:37;;;;;;;1.73;1.63;;;15.30;99.90;;;;;;5019129;28;20227;-75
2022/05/30 07:06:07;;;;;;;1.50;1.40;;;15.30;99.90;;;;;;5018535;28;20192;-73
2022/05/30 07:08:35;;;;;;;1.75;1.65;;;15.40;99.90;;;;;;5019878;28;20338;-72
2022/05/30 07:11:02;;;;;;;1.38;1.27;;;15.50;99.90;;;;;;5021817;28;20443;-72
2022/05/30 07:13:30;;;;;;;2.67;1.55;;;15.50;99.90;;;;;;5019379;28;20284;-72
2022/05/30 07:15:58;;;;;;;1.20;1.10;;;15.80;99.90;;;;;;5020050;28;20215;-74
2022/05/30 07:18:25;;;;;;;2.97;1.50;;;16.00;99.90;;;;;;5018898;28;20226;-73
2022/05/30 07:20:59;;;;;;;1.60;1.50;;;15.90;99.90;;;;;;5015154;28;20203;-74
2022/05/30 07:23:26;;;;;;;1.50;1.50;;;15.70;99.90;;;;;;5019848;28;20543;-76
2022/05/30 07:25:58;;;;;;;3.85;1.85;;;15.60;99.90;;;;;;5017248;28;20200;-76
2022/05/30 07:28:28;;;;;;;1.80;1.70;;;15.70;99.90;;;;;;5015585;28;20326;-76
2022/05/30 07:31:03;;;;;;;1.77;1.67;;;16.00;99.90;;;;;;5018463;28;20219;-74
2022/05/30 07:33:30;;;;;;;1.63;1.52;;;16.20;99.90;;;;;;5017358;28;20210;-75
2022/05/30 07:35:57;;;;;;;2.35;1.60;;;16.10;99.90;;;;;;5022395;28;20242;-77
2022/05/30 07:38:24;;;;;;;2.22;1.67;;;16.30;99.90;;;;;;5028401;28;20223;-76
2022/05/30 07:40:51;;;;;;;2.88;1.55;;;16.30;99.90;;;;;;5019011;28;20200;-76
2022/05/30 07:43:18;;;;;;;1.67;1.52;;;16.10;99.90;;;;;;5019402;28;20215;-77
2022/05/30 07:45:46;;;;;;;1.45;1.30;;;16.00;99.90;;;;;;5017440;28;20195;-76
2022/05/30 07:48:14;;;;;;;1.27;1.20;;;16.10;99.90;;;;;;5016056;28;20251;-76
2022/05/30 07:50:41;;;;;;;1.30;1.30;;;16.40;99.90;;;;;;5018103;28;20200;-76
2022/05/30 07:53:09;;;;;;;1.73;1.40;;;16.80;99.90;;;;;;5019129;28;20229;-74
2022/05/30 07:55:39;;;;;;;2.00;1.50;;;17.00;99.90;;;;;;5020396;28;20563;-76
2022/05/30 07:58:06;;;;;;;1.48;1.38;;;17.10;99.90;;;;;;5017165;28;20227;-75
2022/05/30 08:00:36;;;;;;;1.25;1.20;;;17.20;99.90;;;;;;5010867;28;20199;-76
2022/05/30 08:03:04;;;;;;;1.50;1.40;;;17.20;99.90;;;;;;5016837;28;20223;-75
2022/05/30 08:05:33;;;;;;;1.55;1.45;;;17.30;99.90;;;;;;5014399;28;20270;-74
2022/05/30 08:08:00;;;;;;;1.65;1.52;;;17.40;99.90;;;;;;5014768;28;20223;-75
2022/05/30 08:10:28;;;;;;;2.47;1.40;;;17.40;99.90;;;;;;5014805;28;20330;-73
2022/05/30 08:12:55;;;;;;;1.60;1.50;;;17.50;99.90;;;;;;5018342;28;20222;-75
2022/05/30 08:15:22;;;;;;;1.17;1.08;;;17.70;99.90;;;;;;5016362;28;20196;-75
2022/05/30 08:17:49;;;;;;;1.45;1.35;;;17.50;99.90;;;;;;5020780;28;20215;-75
2022/05/30 08:20:17;;;;;;;1.75;1.60;;;17.70;99.90;;;;;;5013726;28;20218;-75
2022/05/30 08:22:46;;;;;;;1.30;1.20;;;17.90;99.90;;;;;;5017562;28;21014;-74
2022/05/30 08:25:16;;;;;;;1.70;1.45;;;17.90;99.90;;;;;;5019324;28;20199;-76
2022/05/30 08:27:43;;;;;;;1.20;1.20;;;18.00;99.90;;;;;;5015741;28;20231;-73
2022/05/30 08:30:12;;;;;;;1.20;1.15;;;17.90;99.90;;;;;;5032732;28;20187;-75
2022/05/30 08:32:41;;;;;;;1.40;1.30;;;18.00;99.90;;;;;;5019941;28;20219;-76
2022/05/30 08:35:10;;;;;;;1.33;1.23;;;18.00;99.90;;;;;;5019804;28;20202;-76
2022/05/30 08:37:38;;;;;;;1.65;1.20;;;18.00;99.90;;;;;;5019183;28;20230;-74
2022/05/30 08:43:05;;;;;;;3.65;1.70;;;18.10;99.90;;;;;;5005558;28;20229;-75
2022/05/30 08:45:33;;;;;;;1.23;1.13;;;18.40;99.90;;;;;;5018888;28;20195;-76
2022/05/30 08:48:01;;;;;;;1.38;1.27;;;18.50;99.90;;;;;;5017531;28;20433;-76
2022/05/30 08:50:36;;;;;;;1.10;1.10;;;18.70;99.90;;;;;;5019303;28;20208;-76
2022/05/30 08:53:39;;;;;;;1.65;1.30;;;18.60;99.90;;;;;;5018068;28;20218;-75
2022/05/30 08:56:18;;;;;;;1.30;1.20;;;18.60;99.90;;;;;;5018257;28;20581;-75
2022/05/30 08:58:56;;;;;;;1.38;1.20;;;18.80;99.90;;;;;;5026850;28;20227;-75
2022/05/30 09:01:28;;;;;;;1.50;1.27;;;18.70;99.90;;;;;;5032627;28;20199;-75
2022/05/30 09:04:10;;;;;;;3.65;1.77;;;18.40;99.90;;;;;;5025949;28;20230;-76
2022/05/30 09:06:43;;;;;;;1.45;1.35;;;18.20;99.90;;;;;;5019674;28;20307;-76
2022/05/30 09:09:18;;;;;;;1.48;1.38;;;18.00;99.90;;;;;;5020695;28;20307;-75
2022/05/30 09:11:50;;;;;;;1.55;1.45;;;18.20;99.90;;;;;;5023872;28;20666;-75
2022/05/30 09:14:24;;;;;;;1.95;1.48;;;18.20;99.90;;;;;;5021765;28;20951;-76
2022/05/30 09:16:57;;;;;;;1.40;1.30;;;18.30;99.90;;;;;;5020519;28;20235;-76
2022/05/30 09:19:26;;;;;;;1.30;1.20;;;18.60;99.90;;;;;;5019110;28;20231;-76
2022/05/30 09:22:01;;;;;;;1.27;1.08;;;18.90;99.90;;;;;;5021223;28;20570;-76
2022/05/30 09:24:30;;;;;;;1.08;1.08;;;19.20;99.90;;;;;;5034909;28;20222;-76
2022/05/30 09:27:00;;;;;;;2.53;1.30;;;19.70;99.90;;;;;;5021254;28;20269;-73
2022/05/30 09:29:30;;;;;;;2.33;1.40;;;19.80;99.90;;;;;;5023129;28;20579;-75
2022/05/30 09:32:10;;;;;;;1.20;1.10;;;19.90;99.90;;;;;;5021404;28;20436;-74
2022/05/30 09:34:45;;;;;;;1.30;1.20;;;20.00;99.90;;;;;;5022161;28;20227;-76
2022/05/30 09:37:24;;;;;;;1.10;1.10;;;20.10;99.90;;;;;;5021120;28;20735;-75
2022/05/30 09:39:51;;;;;;;2.08;1.00;;;20.10;99.90;;;;;;5021866;28;20219;-76
2022/05/30 09:42:32;;;;;;;2.15;1.30;;;20.30;99.90;;;;;;5022078;28;20223;-76
2022/05/30 09:45:08;;;;;;;1.15;1.08;;;20.50;99.90;;;;;;5019564;28;20675;-75
2022/05/30 09:47:35;;;;;;;1.35;1.25;;;20.60;99.90;;;;;;5022570;28;20215;-76
2022/05/30 09:50:15;;;;;;;1.95;1.00;;;20.50;99.90;;;;;;5021958;28;20215;-76
2022/05/30 09:52:43;;;;;;;2.00;1.02;;;20.30;99.90;;;;;;5020167;28;20282;-75
2022/05/30 09:55:27;;;;;;;1.10;1.10;;;20.20;99.90;;;;;;5019542;28;20207;-75
2022/05/30 09:57:57;;;;;;;1.30;1.10;;;20.30;99.90;;;;;;5021040;28;20272;-76
2022/05/30 10:00:42;;;;;;;1.38;1.27;;;20.30;99.90;;;;;;5021458;28;20204;-76
2022/05/30 10:03:13;;;;;;;1.30;1.20;;;20.40;99.90;;;;;;5019907;28;20301;-75
2022/05/30 10:05:40;;;;;;;2.45;1.17;;;20.50;99.90;;;;;;5017708;28;20472;-76
2022/05/30 10:08:23;;;;;;;1.33;1.20;;;20.70;99.90;;;;;;5022424;28;20828;-75
2022/05/30 10:10:52;;;;;;;1.20;1.10;;;20.70;99.90;;;;;;5017069;28;20368;-75
2022/05/30 10:13:35;;;;;;;0.80;0.80;;;20.70;99.90;;;;;;5022470;28;20208;-73
2022/05/30 10:16:05;;;;;;;1.10;1.10;;;20.60;99.90;;;;;;5022672;28;20227;-75
2022/05/30 10:18:36;;;;;;;2.63;1.20;;;20.40;99.90;;;;;;5026350;28;20624;-75
2022/05/30 10:21:29;;;;;;;1.48;0.90;;;20.80;99.90;;;;;;5021250;28;20306;-75
2022/05/30 10:30:10;;;;;;;1.15;0.90;;;22.00;99.90;;;;;;5021786;28;20632;-75
2022/05/30 10:32:48;;;;;;;1.30;0.85;;;21.90;99.90;;;;;;5018331;28;20721;-72
2022/05/30 10:35:27;;;;;;;1.05;0.95;;;22.00;99.90;;;;;;5021075;28;20219;-73
2022/05/30 10:38:18;;;;;;;1.05;0.93;;;22.20;99.90;;;;;;5018790;28;20272;-75
2022/05/30 10:40:57;;;;;;;0.80;0.80;;;22.10;99.90;;;;;;5016974;28;20223;-75
2022/05/30 10:43:32;;;;;;;1.00;0.90;;;22.00;99.90;;;;;;5020153;28;20230;-75
2022/05/30 10:46:03;;;;;;;1.40;0.80;;;21.90;99.90;;;;;;5014441;28;20215;-74
2022/05/30 10:48:33;;;;;;;2.35;0.90;;;21.70;99.90;;;;;;5020166;28;20494;-75
2022/05/30 10:51:04;;;;;;;1.20;1.10;;;21.60;99.90;;;;;;5017191;28;20223;-76
2022/05/30 10:53:43;;;;;;;0.90;0.73;;;21.40;99.90;;;;;;5020898;28;20199;-75
2022/05/30 10:56:17;;;;;;;0.95;0.90;;;21.40;99.90;;;;;;5020924;28;20223;-76
2022/05/30 10:58:52;;;;;;;0.82;0.80;;;21.80;99.90;;;;;;5018425;28;20690;-74
2022/05/30 11:01:43;;;;;;;0.95;0.70;;;22.20;99.90;;;;;;5018419;28;20226;-75
2022/05/30 11:04:19;;;;;;;0.80;0.80;;;22.40;99.90;;;;;;5019919;28;20223;-76
2022/05/30 11:06:50;;;;;;;1.17;1.08;;;22.40;99.90;;;;;;5016470;28;20231;-76
2022/05/30 11:09:24;;;;;;;0.73;0.73;;;22.30;99.90;;;;;;5024078;28;20195;-75
2022/05/30 11:12:01;;;;;;;0.98;0.98;;;22.00;99.90;;;;;;5025532;28;20728;-75
2022/05/30 11:14:37;;;;;;;0.93;0.90;;;21.90;99.90;;;;;;5020280;28;20202;-75
2022/05/30 11:17:11;;;;;;;1.02;1.00;;;21.90;99.90;;;;;;5016941;28;20302;-75
2022/05/30 11:19:56;;;;;;;1.83;1.23;;;21.80;99.90;;;;;;5019156;28;20828;-75
2022/05/30 11:22:37;;;;;;;0.93;0.75;;;21.80;99.90;;;;;;5017444;28;20224;-76
2022/05/30 11:25:06;;;;;;;2.60;1.00;;;21.80;99.90;;;;;;5021060;28;20215;-76
2022/05/30 11:27:39;;;;;;;1.05;0.77;;;21.70;99.90;;;;;;5020627;28;20294;-75
2022/05/30 11:30:35;;;;;;;1.55;0.80;;;21.80;99.90;;;;;;5020427;28;20195;-75
2022/05/30 11:33:39;;;;;;;1.23;0.98;;;21.80;99.90;;;;;;5020320;28;20195;-75
2022/05/30 11:36:23;;;;;;;0.90;0.90;;;22.10;99.90;;;;;;5019263;28;20222;-76
2022/05/30 11:39:03;;;;;;;0.93;0.90;;;22.20;99.90;;;;;;5015391;28;20644;-75
2022/05/30 11:41:44;;;;;;;1.25;0.80;;;22.10;99.90;;;;;;5017831;28;20278;-74
2022/05/30 11:44:34;;;;;;;2.13;0.98;;;21.80;99.90;;;;;;5017734;28;20406;-75
2022/05/30 11:47:09;;;;;;;1.83;0.90;;;21.80;99.90;;;;;;5019390;28;20812;-74
2022/05/30 11:49:45;;;;;;;2.22;0.80;;;22.00;99.90;;;;;;5017955;28;20198;-75
2022/05/30 11:52:19;;;;;;;1.02;0.60;;;22.30;99.90;;;;;;5020854;28;20660;-75
2022/05/30 11:55:00;;;;;;;2.95;1.10;;;22.50;99.90;;;;;;5013601;28;20196;-76
2022/05/30 11:57:36;;;;;;;0.88;0.88;;;22.70;99.90;;;;;;5016796;28;20234;-76
2022/05/30 12:00:23;;;;;;;0.80;0.80;;;22.20;99.90;;;;;;5016267;28;20236;-76
2022/05/30 12:03:26;;;;;;;0.98;0.85;;;21.80;99.90;;;;;;5018734;28;20366;-75
2022/05/30 12:06:23;;;;;;;0.90;0.90;;;21.70;99.90;;;;;;5019048;28;20412;-76
2022/05/30 12:09:02;;;;;;;2.25;1.08;;;21.60;99.90;;;;;;5013361;28;20196;-76
2022/05/30 12:12:05;;;;;;;1.60;1.00;;;21.50;99.90;;;;;;5018751;28;20235;-76
2022/05/30 12:15:05;;;;;;;0.88;0.88;;;21.40;99.90;;;;;;5013437;28;20199;-75
2022/05/30 12:25:52;;;;;;;2.50;0.98;;;20.70;99.90;;;;;;5022696;28;20191;-71
2022/05/30 12:28:56;;;;;;;1.40;0.90;;;20.90;99.90;;;;;;5023091;28;20227;-72
2022/05/30 12:31:41;;;;;;;1.17;0.93;;;20.90;99.90;;;;;;5026469;28;20248;-72
2022/05/30 12:34:09;;;;;;;0.95;0.95;;;21.00;99.90;;;;;;5041928;28;20244;-72
2022/05/30 12:36:44;;;;;;;1.25;1.00;;;20.90;99.90;;;;;;5044573;28;20226;-72
2022/05/30 12:39:35;;;;;;;0.90;0.90;;;20.80;99.90;;;;;;5044478;28;20214;-72
2022/05/30 12:42:08;;;;;;;1.13;0.98;;;20.70;99.90;;;;;;5042338;28;20226;-73
2022/05/30 12:44:51;;;;;;;0.82;0.82;;;20.50;99.90;;;;;;5045706;28;20284;-72
2022/05/30 12:47:26;;;;;;;0.98;0.90;;;20.40;99.90;;;;;;5045607;28;20246;-73
2022/05/30 12:50:13;;;;;;;1.10;1.00;;;20.50;99.90;;;;;;5044311;28;20226;-72
2022/05/30 12:52:54;;;;;;;1.10;1.00;;;20.50;99.90;;;;;;5059151;28;20227;-71
2022/05/30 12:55:35;;;;;;;1.42;0.90;;;20.40;99.90;;;;;;5045239;28;20598;-72
2022/05/30 12:58:02;;;;;;;1.10;1.00;;;20.40;99.90;;;;;;5023695;28;20658;-72
2022/05/30 13:00:53;;;;;;;0.90;0.90;;;20.40;99.90;;;;;;5023093;28;20277;-72
2022/05/30 13:03:44;;;;;;;0.88;0.80;;;20.30;99.90;;;;;;5025900;28;20251;-71
2022/05/30 13:06:21;;;;;;;1.50;1.20;;;20.50;99.90;;;;;;5042302;28;20286;-71
2022/05/30 13:09:10;;;;;;;1.00;1.00;;;20.50;99.90;;;;;;5043964;28;20218;-72
2022/05/30 13:12:00;;;;;;;4.15;1.15;;;20.50;99.90;;;;;;5044845;28;20195;-71
2022/05/30 13:14:49;;;;;;;3.13;1.00;;;20.50;99.90;;;;;;5040345;28;20216;-72
2022/05/30 13:17:26;;;;;;;0.93;0.93;;;20.40;99.90;;;;;;5039339;28;20214;-72
2022/05/30 13:19:56;;;;;;;0.85;0.80;;;20.40;99.90;;;;;;5043488;28;20226;-72
2022/05/30 13:22:31;;;;;;;1.35;1.17;;;20.50;99.90;;;;;;5046418;28;20600;-71
2022/05/30 13:24:59;;;;;;;1.25;1.00;;;20.50;99.90;;;;;;5042071;28;20630;-71
2022/05/30 13:27:29;;;;;;;3.17;1.30;;;20.50;99.90;;;;;;5044084;28;20265;-71
2022/05/30 13:29:56;;;;;;;1.17;1.10;;;20.30;99.90;;;;;;5043877;28;20612;-71
2022/05/30 13:32:24;;;;;;;1.90;1.27;;;20.20;99.90;;;;;;5044052;28;20210;-71
2022/05/30 13:34:55;;;;;;;2.20;0.93;;;20.20;99.90;;;;;;5045134;28;20226;-73
2022/05/30 13:37:25;;;;;;;0.98;0.93;;;20.30;99.90;;;;;;5052701;28;20199;-71
2022/05/30 13:39:54;;;;;;;2.28;1.23;;;20.20;99.90;;;;;;5045385;28;20537;-71